createdAt,value
2017-11-23T00:09:17.000Z,52.099
2017-11-23T00:29:17.000Z,51.96
2017-11-23T00:49:17.000Z,52.057
2017-11-23T00:59:17.000Z,51.881
2017-11-23T01:09:19.000Z,51.898
2017-11-23T01:19:17.000Z,52.021
2017-11-23T01:29:17.000Z,51.643
2017-11-23T01:39:17.000Z,51.948
2017-11-23T01:49:21.000Z,51.858
2017-11-23T01:59:17.000Z,51.951
2017-11-23T02:09:17.000Z,51.625
2017-11-23T02:19:17.000Z,51.919
2017-11-23T02:29:17.000Z,51.681
2017-11-23T02:39:17.000Z,51.688
2017-11-23T02:49:17.000Z,51.854
2017-11-23T02:59:17.000Z,51.316
2017-11-23T03:09:17.000Z,51.352
2017-11-23T03:19:17.000Z,51.253
2017-11-23T03:29:17.000Z,51.335
2017-11-23T03:39:17.000Z,50.959
2017-11-23T03:49:17.000Z,51.138
2017-11-23T03:59:17.000Z,51.294
2017-11-23T04:09:17.000Z,51.188
2017-11-23T04:19:17.000Z,51.261
2017-11-23T04:29:17.000Z,51.408
2017-11-23T04:39:17.000Z,51.415
2017-11-23T04:49:17.000Z,51.187
2017-11-23T04:59:17.000Z,51.323
2017-11-23T05:09:17.000Z,51.235
2017-11-23T05:19:17.000Z,51.264
2017-11-23T05:29:17.000Z,51.082
2017-11-23T05:39:17.000Z,50.952
2017-11-23T05:49:18.000Z,50.961
2017-11-23T05:59:18.000Z,50.842
2017-11-23T06:09:18.000Z,50.585
2017-11-23T06:19:18.000Z,50.393
2017-11-23T06:29:18.000Z,50.243
2017-11-23T06:39:18.000Z,49.74
2017-11-23T06:49:18.000Z,48.9
2017-11-23T06:59:18.000Z,48.457
2017-11-23T07:09:18.000Z,48.592
2017-11-23T07:19:18.000Z,48.485
2017-11-23T07:29:18.000Z,48.913
2017-11-23T07:49:18.000Z,49.03
2017-11-23T07:59:18.000Z,48.864
2017-11-23T08:09:18.000Z,48.634
2017-11-23T08:19:18.000Z,48.5
2017-11-23T08:29:18.000Z,47.97
2017-11-23T08:39:18.000Z,47.919
2017-11-23T08:49:18.000Z,47.686
2017-11-23T08:59:18.000Z,46.986
2017-11-23T09:09:18.000Z,46.135
2017-11-23T09:19:18.000Z,45.944
2017-11-23T09:29:18.000Z,46.005
2017-11-23T09:39:18.000Z,45.739
2017-11-23T09:49:18.000Z,45.631
2017-11-23T09:59:18.000Z,45.847
2017-11-23T10:09:19.000Z,45.943
2017-11-23T10:19:18.000Z,45.558
2017-11-23T10:29:18.000Z,45.6
2017-11-23T10:39:18.000Z,45.589
2017-11-23T10:49:18.000Z,45.504
2017-11-23T10:59:18.000Z,45.334
2017-11-23T11:09:18.000Z,45.292
2017-11-23T11:19:18.000Z,45.314
2017-11-23T11:29:18.000Z,45.465
2017-11-23T11:39:18.000Z,45.541
2017-11-23T11:49:18.000Z,45.521
2017-11-23T11:59:18.000Z,45.823
2017-11-23T12:09:18.000Z,45.568
2017-11-23T12:19:18.000Z,45.238
2017-11-23T12:29:18.000Z,45.116
2017-11-23T12:39:18.000Z,45.342
2017-11-23T12:49:18.000Z,45.505
2017-11-23T12:59:18.000Z,45.77
2017-11-23T13:09:18.000Z,45.665
2017-11-23T13:19:18.000Z,45.705
2017-11-23T13:29:18.000Z,45.627
2017-11-23T13:39:18.000Z,45.615
2017-11-23T13:49:18.000Z,45.568
2017-11-23T13:59:19.000Z,47.262
2017-11-23T14:09:19.000Z,47.274
2017-11-23T14:19:19.000Z,47.516
2017-11-23T14:29:19.000Z,47.839
2017-11-23T14:39:19.000Z,47.78
2017-11-23T14:49:19.000Z,47.77
2017-11-23T14:59:19.000Z,47.942
2017-11-23T15:09:19.000Z,47.896
2017-11-23T15:19:19.000Z,47.894
2017-11-23T15:29:19.000Z,47.456
2017-11-23T15:39:19.000Z,47.561
2017-11-23T15:49:19.000Z,47.72
2017-11-23T15:59:21.000Z,47.665
2017-11-23T16:09:19.000Z,47.974
2017-11-23T16:19:19.000Z,47.596
2017-11-23T16:29:19.000Z,47.647
2017-11-23T16:39:19.000Z,47.969
2017-11-23T16:49:19.000Z,48.196
2017-11-23T16:59:19.000Z,48.686
2017-11-23T17:09:19.000Z,48.497
2017-11-23T17:19:19.000Z,48.382
2017-11-23T17:29:19.000Z,48.244
2017-11-23T17:39:19.000Z,48.541
2017-11-23T17:49:19.000Z,49.839
2017-11-23T17:59:19.000Z,49.936
2017-11-23T18:09:19.000Z,49.862
2017-11-23T18:19:19.000Z,49.917
2017-11-23T18:29:19.000Z,49.797
2017-11-23T18:39:19.000Z,49.648
2017-11-23T18:49:19.000Z,49.319
2017-11-23T18:59:19.000Z,49.607
2017-11-23T19:09:19.000Z,49.369
2017-11-23T19:19:19.000Z,49.259
2017-11-23T19:29:19.000Z,48.994
2017-11-23T19:39:19.000Z,50.823
2017-11-23T19:49:19.000Z,50.897
2017-11-23T19:59:19.000Z,50.73
2017-11-23T20:09:19.000Z,51.027
2017-11-23T20:19:19.000Z,50.708
2017-11-23T20:29:19.000Z,50.871
2017-11-23T20:39:19.000Z,50.619
2017-11-23T20:49:19.000Z,50.958
2017-11-23T20:59:19.000Z,50.634
2017-11-23T21:09:19.000Z,51.044
2017-11-23T21:19:20.000Z,51.187
2017-11-23T21:29:19.000Z,50.903
2017-11-23T21:39:19.000Z,51.219
2017-11-23T21:49:19.000Z,51.273
2017-11-23T21:59:19.000Z,51.306
2017-11-23T22:09:19.000Z,50.948
2017-11-23T22:19:19.000Z,50.644
2017-11-23T22:29:21.000Z,50.51
2017-11-23T22:39:20.000Z,50.399
2017-11-23T22:49:20.000Z,50.372
2017-11-23T22:59:20.000Z,50.518
2017-11-23T23:09:20.000Z,50.525
2017-11-23T23:19:20.000Z,50.584
2017-11-23T23:29:20.000Z,50.258
2017-11-23T23:39:20.000Z,50.381
2017-11-23T23:49:20.000Z,50.601
2017-11-23T23:59:20.000Z,50.049
